sensor_id;sensor_type;location;lat;lon;timestamp;pressure;altitude;pressure_sealevel;temperature;humidity
21234;BME280;10774;42.178;26.578;2023-09-19T00:00:46;100408.63;;;16.20;100.00
21234;BME280;10774;42.178;26.578;2023-09-19T00:03:12;100416.50;;;16.12;100.00
21234;BME280;10774;42.178;26.578;2023-09-19T00:05:38;100402.81;;;16.13;100.00
21234;BME280;10774;42.178;26.578;2023-09-19T00:08:04;100398.53;;;16.11;100.00
21234;BME280;10774;42.178;26.578;2023-09-19T00:10:31;100405.16;;;16.07;100.00
21234;BME280;10774;42.178;26.578;2023-09-19T00:13:00;100389.81;;;15.61;100.00
21234;BME280;10774;42.178;26.578;2023-09-19T00:15:31;100405.34;;;15.70;100.00
21234;BME280;10774;42.178;26.578;2023-09-19T00:18:00;100394.16;;;15.63;100.00
21234;BME280;10774;42.178;26.578;2023-09-19T00:20:26;100395.66;;;15.67;100.00
21234;BME280;10774;42.178;26.578;2023-09-19T00:22:51;100401.91;;;15.68;100.00
21234;BME280;10774;42.178;26.578;2023-09-19T00:25:21;100390.59;;;15.74;100.00
21234;BME280;10774;42.178;26.578;2023-09-19T00:27:47;100392.94;;;15.67;100.00
21234;BME280;10774;42.178;26.578;2023-09-19T00:30:15;100400.00;;;15.92;100.00
21234;BME280;10774;42.178;26.578;2023-09-19T00:32:45;100388.69;;;15.99;100.00
21234;BME280;10774;42.178;26.578;2023-09-19T00:35:13;100376.09;;;15.86;100.00
21234;BME280;10774;42.178;26.578;2023-09-19T00:37:39;100385.81;;;15.42;100.00
21234;BME280;10774;42.178;26.578;2023-09-19T00:40:08;100376.72;;;15.43;100.00
21234;BME280;10774;42.178;26.578;2023-09-19T00:42:40;100389.59;;;15.64;100.00
21234;BME280;10774;42.178;26.578;2023-09-19T00:45:07;100383.00;;;15.09;100.00
21234;BME280;10774;42.178;26.578;2023-09-19T00:47:35;100366.94;;;15.19;100.00
21234;BME280;10774;42.178;26.578;2023-09-19T00:50:02;100374.28;;;15.52;100.00
21234;BME280;10774;42.178;26.578;2023-09-19T00:52:29;100396.03;;;15.74;100.00
21234;BME280;10774;42.178;26.578;2023-09-19T00:54:57;100391.97;;;15.91;100.00
21234;BME280;10774;42.178;26.578;2023-09-19T00:57:25;100397.91;;;16.07;100.00
21234;BME280;10774;42.178;26.578;2023-09-19T00:59:53;100389.03;;;15.83;100.00
21234;BME280;10774;42.178;26.578;2023-09-19T01:02:20;100398.50;;;15.77;100.00
21234;BME280;10774;42.178;26.578;2023-09-19T01:04:46;100391.88;;;15.46;100.00
21234;BME280;10774;42.178;26.578;2023-09-19T01:07:12;100390.88;;;15.47;100.00
21234;BME280;10774;42.178;26.578;2023-09-19T01:09:40;100384.94;;;15.66;100.00
21234;BME280;10774;42.178;26.578;2023-09-19T01:12:06;100395.38;;;15.71;100.00
21234;BME280;10774;42.178;26.578;2023-09-19T01:28:41;100407.63;;;14.93;100.00
21234;BME280;10774;42.178;26.578;2023-09-19T01:31:09;100410.59;;;15.25;100.00
21234;BME280;10774;42.178;26.578;2023-09-19T01:36:23;100389.63;;;15.05;100.00
21234;BME280;10774;42.178;26.578;2023-09-19T01:38:50;100402.00;;;15.31;100.00
21234;BME280;10774;42.178;26.578;2023-09-19T01:41:21;100411.38;;;15.38;100.00
21234;BME280;10774;42.178;26.578;2023-09-19T01:43:51;100404.78;;;15.54;100.00
21234;BME280;10774;42.178;26.578;2023-09-19T01:46:21;100409.59;;;15.50;100.00
21234;BME280;10774;42.178;26.578;2023-09-19T01:52:11;100420.88;;;15.79;100.00
21234;BME280;10774;42.178;26.578;2023-09-19T01:54:52;100410.06;;;15.79;100.00
21234;BME280;10774;42.178;26.578;2023-09-19T01:57:32;100412.66;;;15.92;100.00
21234;BME280;10774;42.178;26.578;2023-09-19T02:00:06;100416.81;;;15.74;100.00
21234;BME280;10774;42.178;26.578;2023-09-19T02:02:40;100418.06;;;15.46;100.00
21234;BME280;10774;42.178;26.578;2023-09-19T02:05:06;100419.53;;;15.50;100.00
21234;BME280;10774;42.178;26.578;2023-09-19T02:07:32;100417.59;;;15.52;100.00
21234;BME280;10774;42.178;26.578;2023-09-19T02:10:00;100405.97;;;15.38;100.00
21234;BME280;10774;42.178;26.578;2023-09-19T02:12:26;100410.72;;;15.59;100.00
21234;BME280;10774;42.178;26.578;2023-09-19T02:14:52;100397.44;;;15.56;100.00
21234;BME280;10774;42.178;26.578;2023-09-19T02:17:18;100409.13;;;15.56;100.00
21234;BME280;10774;42.178;26.578;2023-09-19T02:19:44;100404.78;;;15.54;100.00
21234;BME280;10774;42.178;26.578;2023-09-19T02:22:10;100409.63;;;15.61;100.00
21234;BME280;10774;42.178;26.578;2023-09-19T02:24:37;100405.25;;;15.48;100.00
21234;BME280;10774;42.178;26.578;2023-09-19T02:27:03;100412.38;;;15.37;100.00
21234;BME280;10774;42.178;26.578;2023-09-19T02:29:31;100410.22;;;15.19;100.00
21234;BME280;10774;42.178;26.578;2023-09-19T02:31:59;100409.50;;;15.28;100.00
21234;BME280;10774;42.178;26.578;2023-09-19T02:34:25;100399.22;;;15.09;100.00
21234;BME280;10774;42.178;26.578;2023-09-19T02:36:51;100398.97;;;15.12;100.00
21234;BME280;10774;42.178;26.578;2023-09-19T02:39:18;100410.25;;;15.06;100.00
21234;BME280;10774;42.178;26.578;2023-09-19T02:41:44;100398.38;;;15.08;100.00
21234;BME280;10774;42.178;26.578;2023-09-19T02:44:09;100403.28;;;14.90;100.00
21234;BME280;10774;42.178;26.578;2023-09-19T02:46:35;100388.75;;;14.80;100.00
21234;BME280;10774;42.178;26.578;2023-09-19T02:49:03;100404.06;;;14.93;100.00
21234;BME280;10774;42.178;26.578;2023-09-19T02:51:32;100396.41;;;15.10;100.00
21234;BME280;10774;42.178;26.578;2023-09-19T02:54:01;100381.59;;;15.27;100.00
21234;BME280;10774;42.178;26.578;2023-09-19T02:56:28;100400.69;;;15.13;100.00
21234;BME280;10774;42.178;26.578;2023-09-19T02:58:53;100390.53;;;14.93;100.00
21234;BME280;10774;42.178;26.578;2023-09-19T03:01:20;100409.66;;;14.65;100.00
21234;BME280;10774;42.178;26.578;2023-09-19T03:03:45;100396.66;;;14.71;100.00
21234;BME280;10774;42.178;26.578;2023-09-19T03:06:11;100395.28;;;14.65;100.00
21234;BME280;10774;42.178;26.578;2023-09-19T03:08:38;100391.91;;;14.74;100.00
21234;BME280;10774;42.178;26.578;2023-09-19T03:11:10;100361.47;;;14.59;100.00
21234;BME280;10774;42.178;26.578;2023-09-19T03:13:37;100372.53;;;14.56;100.00
21234;BME280;10774;42.178;26.578;2023-09-19T03:16:06;100377.81;;;14.58;100.00
21234;BME280;10774;42.178;26.578;2023-09-19T03:18:33;100358.59;;;14.50;100.00
21234;BME280;10774;42.178;26.578;2023-09-19T03:20:59;100378.97;;;14.90;100.00
21234;BME280;10774;42.178;26.578;2023-09-19T03:23:25;100367.97;;;14.81;100.00
21234;BME280;10774;42.178;26.578;2023-09-19T03:25:51;100368.63;;;14.84;100.00
21234;BME280;10774;42.178;26.578;2023-09-19T03:28:17;100362.84;;;14.65;100.00
21234;BME280;10774;42.178;26.578;2023-09-19T03:30:43;100364.59;;;14.66;100.00
21234;BME280;10774;42.178;26.578;2023-09-19T03:33:09;100367.66;;;14.49;100.00
21234;BME280;10774;42.178;26.578;2023-09-19T03:35:37;100362.69;;;14.43;100.00
21234;BME280;10774;42.178;26.578;2023-09-19T03:38:03;100369.72;;;14.32;100.00
21234;BME280;10774;42.178;26.578;2023-09-19T03:40:29;100355.56;;;14.42;100.00
21234;BME280;10774;42.178;26.578;2023-09-19T03:42:55;100369.69;;;14.58;100.00
21234;BME280;10774;42.178;26.578;2023-09-19T03:45:20;100364.00;;;14.37;100.00
21234;BME280;10774;42.178;26.578;2023-09-19T03:47:46;100336.41;;;14.21;100.00
21234;BME280;10774;42.178;26.578;2023-09-19T03:50:15;100364.25;;;14.21;100.00
21234;BME280;10774;42.178;26.578;2023-09-19T03:52:43;100362.22;;;14.25;100.00
21234;BME280;10774;42.178;26.578;2023-09-19T03:55:08;100367.47;;;14.26;100.00
21234;BME280;10774;42.178;26.578;2023-09-19T03:57:35;100371.38;;;14.22;100.00
21234;BME280;10774;42.178;26.578;2023-09-19T04:00:01;100358.19;;;14.18;100.00
21234;BME280;10774;42.178;26.578;2023-09-19T04:02:26;100365.13;;;14.22;100.00
21234;BME280;10774;42.178;26.578;2023-09-19T04:04:58;100367.47;;;14.26;100.00
21234;BME280;10774;42.178;26.578;2023-09-19T04:07:23;100370.84;;;14.30;100.00
21234;BME280;10774;42.178;26.578;2023-09-19T04:09:51;100360.34;;;14.51;100.00
21234;BME280;10774;42.178;26.578;2023-09-19T04:12:18;100354.59;;;14.43;100.00
21234;BME280;10774;42.178;26.578;2023-09-19T04:14:44;100361.88;;;14.29;100.00
21234;BME280;10774;42.178;26.578;2023-09-19T04:17:10;100362.97;;;14.14;100.00
21234;BME280;10774;42.178;26.578;2023-09-19T04:19:36;100368.22;;;14.28;100.00
21234;BME280;10774;42.178;26.578;2023-09-19T04:22:02;100371.91;;;14.40;100.00
21234;BME280;10774;42.178;26.578;2023-09-19T04:24:28;100367.47;;;14.26;100.00
21234;BME280;10774;42.178;26.578;2023-09-19T04:26:53;100352.09;;;14.03;100.00
21234;BME280;10774;42.178;26.578;2023-09-19T04:29:18;100374.41;;;14.30;100.00
21234;BME280;10774;42.178;26.578;2023-09-19T04:31:45;100371.13;;;14.51;100.00
21234;BME280;10774;42.178;26.578;2023-09-19T04:34:11;100371.59;;;14.69;100.00
21234;BME280;10774;42.178;26.578;2023-09-19T04:36:41;100378.78;;;14.57;100.00
21234;BME280;10774;42.178;26.578;2023-09-19T04:39:06;100389.00;;;14.64;100.00
21234;BME280;10774;42.178;26.578;2023-09-19T04:41:33;100374.69;;;14.75;100.00
21234;BME280;10774;42.178;26.578;2023-09-19T04:43:59;100378.84;;;14.68;100.00
21234;BME280;10774;42.178;26.578;2023-09-19T04:46:24;100379.31;;;14.62;100.00
21234;BME280;10774;42.178;26.578;2023-09-19T04:48:50;100383.22;;;14.32;100.00
21234;BME280;10774;42.178;26.578;2023-09-19T04:51:15;100396.84;;;14.56;100.00
21234;BME280;10774;42.178;26.578;2023-09-19T04:53:41;100381.16;;;14.85;100.00
21234;BME280;10774;42.178;26.578;2023-09-19T04:56:07;100376.22;;;14.79;100.00
21234;BME280;10774;42.178;26.578;2023-09-19T04:58:33;100385.59;;;15.10;100.00
21234;BME280;10774;42.178;26.578;2023-09-19T05:00:59;100384.81;;;15.32;100.00
21234;BME280;10774;42.178;26.578;2023-09-19T05:03:24;100374.75;;;15.34;100.00
21234;BME280;10774;42.178;26.578;2023-09-19T05:05:50;100374.53;;;15.49;100.00
21234;BME280;10774;42.178;26.578;2023-09-19T05:08:15;100386.84;;;15.53;100.00
21234;BME280;10774;42.178;26.578;2023-09-19T05:10:41;100387.88;;;15.63;100.00
21234;BME280;10774;42.178;26.578;2023-09-19T05:13:06;100387.47;;;15.21;100.00
21234;BME280;10774;42.178;26.578;2023-09-19T05:15:34;100382.28;;;15.53;100.00
21234;BME280;10774;42.178;26.578;2023-09-19T05:18:01;100374.53;;;15.60;100.00
21234;BME280;10774;42.178;26.578;2023-09-19T05:20:26;100385.28;;;15.26;100.00
21234;BME280;10774;42.178;26.578;2023-09-19T05:23:00;100388.59;;;14.95;100.00
21234;BME280;10774;42.178;26.578;2023-09-19T05:25:28;100390.59;;;15.04;100.00
21234;BME280;10774;42.178;26.578;2023-09-19T05:27:56;100372.88;;;15.00;100.00
21234;BME280;10774;42.178;26.578;2023-09-19T05:30:23;100385.78;;;15.31;100.00
21234;BME280;10774;42.178;26.578;2023-09-19T05:32:48;100384.94;;;15.07;100.00
21234;BME280;10774;42.178;26.578;2023-09-19T05:35:14;100380.88;;;15.36;100.00
21234;BME280;10774;42.178;26.578;2023-09-19T05:37:39;100376.84;;;15.42;100.00
21234;BME280;10774;42.178;26.578;2023-09-19T05:40:05;100393.75;;;15.57;100.00
21234;BME280;10774;42.178;26.578;2023-09-19T05:42:34;100392.34;;;14.92;100.00
21234;BME280;10774;42.178;26.578;2023-09-19T05:45:00;100378.50;;;14.73;100.00
21234;BME280;10774;42.178;26.578;2023-09-19T05:47:25;100396.50;;;15.44;100.00
21234;BME280;10774;42.178;26.578;2023-09-19T05:49:50;100394.97;;;15.29;100.00
21234;BME280;10774;42.178;26.578;2023-09-19T05:52:17;100395.09;;;15.51;100.00
21234;BME280;10774;42.178;26.578;2023-09-19T05:54:43;100401.47;;;15.50;100.00
21234;BME280;10774;42.178;26.578;2023-09-19T05:57:08;100390.47;;;15.29;100.00
21234;BME280;10774;42.178;26.578;2023-09-19T05:59:35;100403.88;;;15.66;100.00
21234;BME280;10774;42.178;26.578;2023-09-19T06:02:01;100398.75;;;16.08;100.00
21234;BME280;10774;42.178;26.578;2023-09-19T06:04:26;100401.72;;;16.38;100.00
21234;BME280;10774;42.178;26.578;2023-09-19T06:06:52;100409.00;;;16.71;100.00
21234;BME280;10774;42.178;26.578;2023-09-19T06:09:17;100403.75;;;16.91;100.00
21234;BME280;10774;42.178;26.578;2023-09-19T06:11:44;100402.34;;;17.19;100.00
21234;BME280;10774;42.178;26.578;2023-09-19T06:14:09;100406.63;;;16.44;100.00
21234;BME280;10774;42.178;26.578;2023-09-19T06:16:35;100403.94;;;16.56;100.00
21234;BME280;10774;42.178;26.578;2023-09-19T06:19:02;100414.63;;;17.23;100.00
21234;BME280;10774;42.178;26.578;2023-09-19T06:21:28;100404.38;;;16.94;100.00
21234;BME280;10774;42.178;26.578;2023-09-19T06:23:53;100409.91;;;17.36;100.00
21234;BME280;10774;42.178;26.578;2023-09-19T06:26:19;100398.84;;;17.49;100.00
21234;BME280;10774;42.178;26.578;2023-09-19T06:28:44;100405.34;;;17.58;100.00
21234;BME280;10774;42.178;26.578;2023-09-19T06:31:10;100400.00;;;17.88;100.00
21234;BME280;10774;42.178;26.578;2023-09-19T06:33:37;100401.97;;;17.86;100.00
21234;BME280;10774;42.178;26.578;2023-09-19T06:36:06;100413.88;;;18.16;100.00
21234;BME280;10774;42.178;26.578;2023-09-19T06:38:32;100412.44;;;18.12;100.00
21234;BME280;10774;42.178;26.578;2023-09-19T06:41:02;100410.25;;;18.06;100.00
21234;BME280;10774;42.178;26.578;2023-09-19T06:43:30;100409.63;;;18.23;100.00
21234;BME280;10774;42.178;26.578;2023-09-19T06:45:56;100415.28;;;18.41;100.00
21234;BME280;10774;42.178;26.578;2023-09-19T06:48:22;100420.59;;;18.42;100.00
21234;BME280;10774;42.178;26.578;2023-09-19T06:50:50;100414.69;;;18.37;100.00
21234;BME280;10774;42.178;26.578;2023-09-19T06:53:16;100399.28;;;18.47;100.00
21234;BME280;10774;42.178;26.578;2023-09-19T06:55:41;100417.91;;;18.52;100.00
21234;BME280;10774;42.178;26.578;2023-09-19T06:58:09;100404.75;;;18.57;100.00
21234;BME280;10774;42.178;26.578;2023-09-19T07:00:36;100405.31;;;18.61;100.00
21234;BME280;10774;42.178;26.578;2023-09-19T07:05:33;100412.88;;;18.78;100.00
21234;BME280;10774;42.178;26.578;2023-09-19T07:07:59;100417.56;;;18.76;100.00
21234;BME280;10774;42.178;26.578;2023-09-19T07:10:26;100411.88;;;18.79;100.00
21234;BME280;10774;42.178;26.578;2023-09-19T07:12:56;100406.16;;;19.01;100.00
21234;BME280;10774;42.178;26.578;2023-09-19T07:15:23;100415.09;;;19.42;99.68
21234;BME280;10774;42.178;26.578;2023-09-19T07:17:50;100398.19;;;19.68;95.89
21234;BME280;10774;42.178;26.578;2023-09-19T07:20:16;100397.84;;;19.90;94.84
21234;BME280;10774;42.178;26.578;2023-09-19T07:22:41;100407.09;;;20.17;92.90
21234;BME280;10774;42.178;26.578;2023-09-19T07:25:07;100402.22;;;20.57;88.75
21234;BME280;10774;42.178;26.578;2023-09-19T07:27:33;100397.69;;;20.48;89.33
21234;BME280;10774;42.178;26.578;2023-09-19T07:29:59;100401.38;;;20.20;90.47
21234;BME280;10774;42.178;26.578;2023-09-19T07:32:24;100394.19;;;21.01;86.49
21234;BME280;10774;42.178;26.578;2023-09-19T07:34:49;100394.09;;;20.01;87.03
21234;BME280;10774;42.178;26.578;2023-09-19T07:37:15;100381.41;;;20.19;91.90
21234;BME280;10774;42.178;26.578;2023-09-19T07:39:41;100373.16;;;20.66;87.95
21234;BME280;10774;42.178;26.578;2023-09-19T07:42:07;100382.25;;;21.02;86.51
21234;BME280;10774;42.178;26.578;2023-09-19T07:44:34;100371.09;;;20.78;87.86
21234;BME280;10774;42.178;26.578;2023-09-19T07:47:00;100363.47;;;20.54;88.28
21234;BME280;10774;42.178;26.578;2023-09-19T07:49:26;100357.81;;;20.37;88.90
21234;BME280;10774;42.178;26.578;2023-09-19T07:51:51;100358.41;;;20.86;89.38
21234;BME280;10774;42.178;26.578;2023-09-19T07:54:20;100356.28;;;20.98;85.65
21234;BME280;10774;42.178;26.578;2023-09-19T07:56:46;100357.88;;;20.55;91.92
21234;BME280;10774;42.178;26.578;2023-09-19T07:59:11;100355.38;;;20.34;91.90
21234;BME280;10774;42.178;26.578;2023-09-19T08:01:38;100345.94;;;20.84;90.60
21234;BME280;10774;42.178;26.578;2023-09-19T08:04:05;100350.25;;;21.04;88.65
21234;BME280;10774;42.178;26.578;2023-09-19T08:06:30;100351.72;;;21.17;87.00
21234;BME280;10774;42.178;26.578;2023-09-19T08:08:56;100347.53;;;20.77;92.59
21234;BME280;10774;42.178;26.578;2023-09-19T08:11:22;100353.16;;;20.93;94.17
21234;BME280;10774;42.178;26.578;2023-09-19T08:13:50;100339.78;;;21.18;92.50
21234;BME280;10774;42.178;26.578;2023-09-19T08:16:16;100346.09;;;21.54;91.93
21234;BME280;10774;42.178;26.578;2023-09-19T08:18:46;100351.44;;;21.63;90.99
21234;BME280;10774;42.178;26.578;2023-09-19T08:21:11;100342.22;;;21.64;89.93
21234;BME280;10774;42.178;26.578;2023-09-19T08:23:37;100358.53;;;21.56;93.74
21234;BME280;10774;42.178;26.578;2023-09-19T08:26:04;100341.94;;;21.67;93.62
21234;BME280;10774;42.178;26.578;2023-09-19T08:28:32;100338.38;;;21.75;96.35
21234;BME280;10774;42.178;26.578;2023-09-19T08:31:04;100343.63;;;21.69;99.48
21234;BME280;10774;42.178;26.578;2023-09-19T08:33:34;100345.38;;;22.04;96.53
21234;BME280;10774;42.178;26.578;2023-09-19T08:36:01;100331.38;;;22.33;90.65
21234;BME280;10774;42.178;26.578;2023-09-19T08:38:30;100324.31;;;22.64;87.92
21234;BME280;10774;42.178;26.578;2023-09-19T08:40:59;100322.00;;;23.02;85.34
21234;BME280;10774;42.178;26.578;2023-09-19T11:49:57;100090.59;;;29.97;40.22
21234;BME280;10774;42.178;26.578;2023-09-19T11:52:24;100088.00;;;29.43;42.79
21234;BME280;10774;42.178;26.578;2023-09-19T11:54:57;100076.38;;;29.15;42.21
21234;BME280;10774;42.178;26.578;2023-09-19T11:57:23;100060.53;;;29.62;42.23
21234;BME280;10774;42.178;26.578;2023-09-19T11:59:49;100064.16;;;30.01;41.74
21234;BME280;10774;42.178;26.578;2023-09-19T12:02:38;100060.28;;;30.40;40.99
21234;BME280;10774;42.178;26.578;2023-09-19T12:05:05;100050.78;;;30.29;41.04
21234;BME280;10774;42.178;26.578;2023-09-19T12:07:42;100050.03;;;30.09;41.35
21234;BME280;10774;42.178;26.578;2023-09-19T12:10:08;100043.72;;;30.02;41.65
21234;BME280;10774;42.178;26.578;2023-09-19T12:12:36;100046.69;;;30.38;39.61
21234;BME280;10774;42.178;26.578;2023-09-19T12:15:02;100036.50;;;30.01;39.86
21234;BME280;10774;42.178;26.578;2023-09-19T12:17:39;100051.47;;;30.25;41.65
21234;BME280;10774;42.178;26.578;2023-09-19T12:20:09;100038.19;;;30.58;40.33
21234;BME280;10774;42.178;26.578;2023-09-19T12:22:45;100030.91;;;30.64;40.19
21234;BME280;10774;42.178;26.578;2023-09-19T12:25:12;100037.53;;;30.88;39.84
21234;BME280;10774;42.178;26.578;2023-09-19T12:27:48;100035.81;;;30.87;39.89
21234;BME280;10774;42.178;26.578;2023-09-19T12:30:27;100026.72;;;30.55;38.97
21234;BME280;10774;42.178;26.578;2023-09-19T12:32:53;100035.97;;;30.67;39.81
21234;BME280;10774;42.178;26.578;2023-09-19T12:35:32;100019.34;;;30.10;39.49
21234;BME280;10774;42.178;26.578;2023-09-19T12:38:00;100026.81;;;29.78;40.33
21234;BME280;10774;42.178;26.578;2023-09-19T12:40:26;100030.94;;;30.01;39.58
21234;BME280;10774;42.178;26.578;2023-09-19T12:42:54;100013.84;;;29.21;40.45
21234;BME280;10774;42.178;26.578;2023-09-19T12:45:24;100009.81;;;29.23;41.15
21234;BME280;10774;42.178;26.578;2023-09-19T12:48:24;100020.34;;;29.91;40.88
21234;BME280;10774;42.178;26.578;2023-09-19T12:51:10;100025.22;;;29.57;40.35
21234;BME280;10774;42.178;26.578;2023-09-19T12:53:44;100013.97;;;29.46;39.89
21234;BME280;10774;42.178;26.578;2023-09-19T12:56:15;100012.06;;;30.23;39.95
21234;BME280;10774;42.178;26.578;2023-09-19T12:58:57;100019.41;;;31.29;39.75
21234;BME280;10774;42.178;26.578;2023-09-19T13:01:26;100003.66;;;30.61;38.52
21234;BME280;10774;42.178;26.578;2023-09-19T13:04:14;99998.41;;;29.58;39.44
21234;BME280;10774;42.178;26.578;2023-09-19T13:06:44;100000.78;;;28.36;41.92
21234;BME280;10774;42.178;26.578;2023-09-19T13:09:10;99998.00;;;28.17;41.77
21234;BME280;10774;42.178;26.578;2023-09-19T13:11:37;100006.75;;;28.40;41.28
21234;BME280;10774;42.178;26.578;2023-09-19T13:17:00;100002.03;;;28.80;41.74
21234;BME280;10774;42.178;26.578;2023-09-19T13:22:44;99994.38;;;28.29;42.15
21234;BME280;10774;42.178;26.578;2023-09-19T13:25:18;99992.69;;;28.68;42.26
21234;BME280;10774;42.178;26.578;2023-09-19T13:27:45;99980.66;;;29.72;40.81
21234;BME280;10774;42.178;26.578;2023-09-19T13:30:12;99986.84;;;29.74;39.62
21234;BME280;10774;42.178;26.578;2023-09-19T13:32:37;99984.44;;;30.41;38.72
21234;BME280;10774;42.178;26.578;2023-09-19T13:35:06;99982.63;;;29.97;38.45
21234;BME280;10774;42.178;26.578;2023-09-19T13:37:34;99977.25;;;29.32;39.09
21234;BME280;10774;42.178;26.578;2023-09-19T13:40:05;99978.38;;;30.51;39.42
21234;BME280;10774;42.178;26.578;2023-09-19T13:42:31;99978.97;;;31.69;37.40
21234;BME280;10774;42.178;26.578;2023-09-19T13:44:57;99985.84;;;32.50;36.18
21234;BME280;10774;42.178;26.578;2023-09-19T13:47:22;99977.25;;;31.38;37.17
21234;BME280;10774;42.178;26.578;2023-09-19T13:49:50;99985.38;;;32.53;35.56
21234;BME280;10774;42.178;26.578;2023-09-19T13:52:18;99965.38;;;33.15;34.84
21234;BME280;10774;42.178;26.578;2023-09-19T13:54:44;99980.59;;;31.89;36.10
21234;BME280;10774;42.178;26.578;2023-09-19T13:57:09;99985.34;;;33.00;35.18
21234;BME280;10774;42.178;26.578;2023-09-19T13:59:35;99973.66;;;33.27;34.95
21234;BME280;10774;42.178;26.578;2023-09-19T14:02:00;99972.59;;;33.97;34.13
21234;BME280;10774;42.178;26.578;2023-09-19T14:04:27;99974.13;;;34.04;33.65
21234;BME280;10774;42.178;26.578;2023-09-19T14:06:54;99968.00;;;33.22;34.00
21234;BME280;10774;42.178;26.578;2023-09-19T14:09:19;99960.81;;;34.23;33.63
21234;BME280;10774;42.178;26.578;2023-09-19T14:11:45;99970.81;;;34.75;32.71
21234;BME280;10774;42.178;26.578;2023-09-19T14:14:12;99971.84;;;33.73;31.53
21234;BME280;10774;42.178;26.578;2023-09-19T14:16:39;99972.59;;;33.68;33.10
21234;BME280;10774;42.178;26.578;2023-09-19T14:19:07;99965.38;;;34.13;33.06
21234;BME280;10774;42.178;26.578;2023-09-19T14:21:33;99965.78;;;34.72;32.44
21234;BME280;10774;42.178;26.578;2023-09-19T14:23:58;99968.22;;;35.46;31.64
21234;BME280;10774;42.178;26.578;2023-09-19T14:26:24;99958.34;;;35.43;31.57
21234;BME280;10774;42.178;26.578;2023-09-19T14:28:49;99963.47;;;35.73;31.37
21234;BME280;10774;42.178;26.578;2023-09-19T14:31:15;99968.50;;;36.30;30.86
21234;BME280;10774;42.178;26.578;2023-09-19T14:33:40;99966.59;;;36.36;31.15
21234;BME280;10774;42.178;26.578;2023-09-19T14:36:08;99970.75;;;36.01;32.07
21234;BME280;10774;42.178;26.578;2023-09-19T14:38:36;99977.66;;;35.23;31.91
21234;BME280;10774;42.178;26.578;2023-09-19T14:41:03;99967.47;;;35.11;31.91
21234;BME280;10774;42.178;26.578;2023-09-19T14:43:29;99973.75;;;34.85;31.59
21234;BME280;10774;42.178;26.578;2023-09-19T14:45:56;99966.16;;;35.90;31.46
21234;BME280;10774;42.178;26.578;2023-09-19T14:48:23;99956.75;;;35.96;31.40
21234;BME280;10774;42.178;26.578;2023-09-19T14:50:51;99961.88;;;34.73;32.69
21234;BME280;10774;42.178;26.578;2023-09-19T14:53:17;99965.59;;;35.39;32.52
21234;BME280;10774;42.178;26.578;2023-09-19T14:55:43;99969.66;;;34.71;33.75
21234;BME280;10774;42.178;26.578;2023-09-19T14:58:10;99962.72;;;34.73;33.34
21234;BME280;10774;42.178;26.578;2023-09-19T15:00:36;99966.56;;;34.50;33.67
21234;BME280;10774;42.178;26.578;2023-09-19T15:03:01;99963.13;;;34.82;33.91
21234;BME280;10774;42.178;26.578;2023-09-19T15:05:27;99973.38;;;34.76;33.48
21234;BME280;10774;42.178;26.578;2023-09-19T15:07:55;99970.59;;;34.76;33.20
21234;BME280;10774;42.178;26.578;2023-09-19T15:10:22;99976.31;;;34.87;33.64
21234;BME280;10774;42.178;26.578;2023-09-19T15:12:47;99983.00;;;34.35;34.20
21234;BME280;10774;42.178;26.578;2023-09-19T15:15:13;99985.66;;;33.68;35.42
21234;BME280;10774;42.178;26.578;2023-09-19T15:17:39;99991.72;;;33.24;36.02
21234;BME280;10774;42.178;26.578;2023-09-19T15:20:05;99984.09;;;33.20;36.47
21234;BME280;10774;42.178;26.578;2023-09-19T15:22:34;99989.34;;;32.81;37.26
21234;BME280;10774;42.178;26.578;2023-09-19T15:25:03;99982.69;;;32.35;38.60
21234;BME280;10774;42.178;26.578;2023-09-19T15:27:29;99990.75;;;31.65;40.14
21234;BME280;10774;42.178;26.578;2023-09-19T15:29:57;99988.63;;;32.09;39.79
21234;BME280;10774;42.178;26.578;2023-09-19T15:32:24;99988.81;;;32.37;39.53
21234;BME280;10774;42.178;26.578;2023-09-19T15:34:49;99986.91;;;32.61;39.24
21234;BME280;10774;42.178;26.578;2023-09-19T15:37:15;99988.25;;;32.82;38.44
21234;BME280;10774;42.178;26.578;2023-09-19T15:39:40;99993.34;;;32.85;38.51
21234;BME280;10774;42.178;26.578;2023-09-19T15:42:07;99993.44;;;32.90;38.37
21234;BME280;10774;42.178;26.578;2023-09-19T15:44:32;99975.91;;;31.89;39.63
21234;BME280;10774;42.178;26.578;2023-09-19T15:46:58;99985.41;;;30.96;41.30
21234;BME280;10774;42.178;26.578;2023-09-19T15:49:24;99985.66;;;30.20;43.26
21234;BME280;10774;42.178;26.578;2023-09-19T15:51:49;99980.47;;;29.22;45.12
21234;BME280;10774;42.178;26.578;2023-09-19T15:54:16;99992.47;;;28.96;46.13
21234;BME280;10774;42.178;26.578;2023-09-19T15:56:43;99990.78;;;28.95;46.34
21234;BME280;10774;42.178;26.578;2023-09-19T15:59:09;99984.13;;;29.16;46.19
21234;BME280;10774;42.178;26.578;2023-09-19T16:01:35;99998.59;;;28.98;46.61
21234;BME280;10774;42.178;26.578;2023-09-19T16:04:02;100004.19;;;28.38;47.54
21234;BME280;10774;42.178;26.578;2023-09-19T16:06:29;99988.19;;;27.74;49.14
21234;BME280;10774;42.178;26.578;2023-09-19T16:08:57;99995.44;;;27.41;50.30
21234;BME280;10774;42.178;26.578;2023-09-19T16:11:25;100001.13;;;26.91;51.90
21234;BME280;10774;42.178;26.578;2023-09-19T16:13:52;100009.13;;;26.79;52.70